Time;durP1;ratioP1;P1;durP2;ratioP2;P2;SDS_P1;SDS_P2;PMS_P1;PMS_P2;Temp;Humidity;BMP_temperature;BMP_pressure;BME280_temperature;BME280_humidity;BME280_pressure;Samples;Min_cycle;Max_cycle;Signal;HPM_P1;HPM_P2
2023/01/22 00:01:59;;;;;;;1.17;0.90;;;;;;;;;;5038108;28;20049;-71
2023/01/22 00:04:25;;;;;;;2.53;1.47;;;;;;;;;;5036740;28;20116;-72
2023/01/22 00:06:51;;;;;;;2.20;1.40;;;;;;;;;;5035137;28;20044;-72
2023/01/22 00:09:17;;;;;;;1.60;1.20;;;;;;;;;;5035383;28;20052;-72
2023/01/22 00:11:43;;;;;;;3.57;1.37;;;;;;;;;;5034555;28;20041;-72
2023/01/22 00:14:09;;;;;;;2.67;1.30;;;;;;;;;;5034760;28;20030;-72
2023/01/22 00:16:35;;;;;;;2.60;1.20;;;;;;;;;;5034855;28;20072;-70
2023/01/22 00:19:01;;;;;;;1.17;0.70;;;;;;;;;;5034964;28;20053;-71
2023/01/22 00:21:27;;;;;;;1.27;0.80;;;;;;;;;;5034847;28;20045;-71
2023/01/22 00:23:53;;;;;;;2.47;1.37;;;;;;;;;;5035468;28;20037;-72
2023/01/22 00:26:20;;;;;;;2.93;1.10;;;;;;;;;;5035184;28;20112;-72
2023/01/22 00:28:46;;;;;;;2.30;1.37;;;;;;;;;;5035299;28;20038;-72
2023/01/22 00:31:12;;;;;;;2.93;1.30;;;;;;;;;;5034876;28;20038;-71
2023/01/22 00:33:39;;;;;;;2.77;1.53;;;;;;;;;;5033210;28;20030;-72
2023/01/22 00:36:06;;;;;;;1.93;1.30;;;;;;;;;;5034982;28;20038;-72
2023/01/22 00:38:33;;;;;;;4.53;1.50;;;;;;;;;;5035079;28;20061;-72
2023/01/22 00:41:06;;;;;;;1.57;0.80;;;;;;;;;;5035051;28;20042;-72
2023/01/22 00:43:33;;;;;;;1.20;0.63;;;;;;;;;;5033174;28;20042;-71
2023/01/22 00:45:59;;;;;;;1.07;0.60;;;;;;;;;;5034758;28;20029;-72
2023/01/22 00:48:25;;;;;;;0.90;0.60;;;;;;;;;;5034461;28;20034;-72
2023/01/22 00:50:51;;;;;;;1.40;0.77;;;;;;;;;;5034607;28;20030;-72
2023/01/22 00:53:17;;;;;;;1.70;1.00;;;;;;;;;;5034695;28;20084;-72
2023/01/22 00:55:53;;;;;;;1.93;1.20;;;;;;;;;;5034530;28;20068;-72
2023/01/22 00:58:19;;;;;;;1.00;0.60;;;;;;;;;;5033151;28;20053;-72
2023/01/22 01:00:45;;;;;;;1.10;0.60;;;;;;;;;;5034259;28;20053;-71
2023/01/22 01:03:27;;;;;;;1.50;0.80;;;;;;;;;;5033840;28;20079;-72
2023/01/22 01:05:53;;;;;;;1.67;1.13;;;;;;;;;;5034484;28;20427;-72
2023/01/22 01:08:19;;;;;;;1.53;1.10;;;;;;;;;;5034478;28;20025;-72
2023/01/22 01:10:46;;;;;;;2.10;1.40;;;;;;;;;;5034540;28;20104;-72
2023/01/22 01:13:12;;;;;;;1.67;1.10;;;;;;;;;;5032656;28;20596;-72
2023/01/22 01:15:38;;;;;;;2.83;1.50;;;;;;;;;;5033100;28;20503;-71
2023/01/22 01:18:04;;;;;;;1.33;1.00;;;;;;;;;;5034182;28;20120;-71
2023/01/22 01:20:30;;;;;;;1.80;1.20;;;;;;;;;;5032468;28;20038;-71
2023/01/22 01:22:57;;;;;;;2.07;1.40;;;;;;;;;;5034163;28;20045;-72
2023/01/22 01:25:23;;;;;;;2.37;1.40;;;;;;;;;;5034145;28;20029;-71
2023/01/22 01:27:49;;;;;;;1.73;1.13;;;;;;;;;;5034038;28;20030;-72
2023/01/22 01:30:15;;;;;;;1.93;1.13;;;;;;;;;;5034063;28;20033;-72
2023/01/22 01:32:41;;;;;;;2.50;1.10;;;;;;;;;;5032762;28;20534;-72
2023/01/22 01:35:07;;;;;;;2.47;1.40;;;;;;;;;;5032700;28;20042;-71
2023/01/22 01:37:33;;;;;;;2.10;1.10;;;;;;;;;;5034051;28;20033;-71
2023/01/22 01:40:00;;;;;;;2.57;1.50;;;;;;;;;;5034006;28;20037;-71
2023/01/22 01:42:28;;;;;;;2.37;1.30;;;;;;;;;;5033681;28;20052;-72
2023/01/22 01:45:12;;;;;;;1.97;1.07;;;;;;;;;;5033466;28;20032;-71
2023/01/22 01:47:38;;;;;;;2.37;1.30;;;;;;;;;;5033884;28;20499;-72
2023/01/22 01:50:05;;;;;;;2.27;1.37;;;;;;;;;;5033406;28;20025;-71
2023/01/22 01:52:31;;;;;;;2.20;1.40;;;;;;;;;;5033677;28;20057;-72
2023/01/22 01:54:57;;;;;;;2.10;1.23;;;;;;;;;;5033355;28;20108;-72
2023/01/22 01:57:30;;;;;;;2.83;1.43;;;;;;;;;;5033335;28;20109;-72
2023/01/22 01:59:56;;;;;;;1.92;1.30;;;;;;;;;;5029432;28;20080;-72
2023/01/22 02:02:22;;;;;;;1.97;1.27;;;;;;;;;;5029403;28;20049;-72
2023/01/22 02:04:49;;;;;;;2.13;1.30;;;;;;;;;;5031924;28;20029;-72
2023/01/22 02:07:15;;;;;;;2.17;1.50;;;;;;;;;;5032925;28;20407;-71
2023/01/22 02:09:41;;;;;;;2.70;1.43;;;;;;;;;;5033401;28;20112;-71
2023/01/22 02:12:08;;;;;;;2.23;1.50;;;;;;;;;;5032019;28;20095;-72
2023/01/22 02:14:37;;;;;;;2.77;1.40;;;;;;;;;;5032010;28;20032;-71
2023/01/22 02:17:29;;;;;;;2.03;1.33;;;;;;;;;;5033244;28;20040;-72
2023/01/22 02:19:55;;;;;;;2.45;1.45;;;;;;;;;;5031904;28;20048;-72
2023/01/22 02:22:21;;;;;;;2.13;1.10;;;;;;;;;;5032757;28;20454;-71
2023/01/22 02:24:47;;;;;;;2.17;1.47;;;;;;;;;;5033123;28;20472;-72
2023/01/22 02:27:14;;;;;;;2.00;1.27;;;;;;;;;;5033268;28;20108;-72
2023/01/22 02:29:40;;;;;;;1.93;1.40;;;;;;;;;;5031382;28;20438;-71
2023/01/22 02:32:06;;;;;;;2.33;1.33;;;;;;;;;;5033140;28;20029;-71
2023/01/22 02:34:32;;;;;;;1.93;1.20;;;;;;;;;;5032882;28;20036;-72
2023/01/22 02:36:59;;;;;;;2.20;1.23;;;;;;;;;;5032719;28;20076;-72
2023/01/22 02:39:26;;;;;;;1.70;1.30;;;;;;;;;;5032804;28;20041;-72
2023/01/22 02:41:52;;;;;;;1.97;1.33;;;;;;;;;;5031078;28;20041;-72
2023/01/22 02:44:18;;;;;;;1.77;1.27;;;;;;;;;;5032470;28;20041;-72
2023/01/22 02:46:44;;;;;;;6.80;2.07;;;;;;;;;;5032676;28;20030;-71
2023/01/22 02:49:10;;;;;;;2.10;1.50;;;;;;;;;;5032438;28;20076;-72
2023/01/22 02:51:36;;;;;;;2.80;1.57;;;;;;;;;;5032667;28;20040;-72
2023/01/22 02:54:03;;;;;;;2.73;1.30;;;;;;;;;;5032606;28;20029;-72
2023/01/22 02:56:29;;;;;;;1.50;1.10;;;;;;;;;;5032400;28;20045;-71
2023/01/22 02:58:55;;;;;;;2.47;1.30;;;;;;;;;;5032654;28;20455;-71
2023/01/22 03:01:22;;;;;;;1.37;1.20;;;;;;;;;;5032260;28;20069;-72
2023/01/22 03:03:50;;;;;;;1.70;1.10;;;;;;;;;;5032485;28;20026;-71
2023/01/22 03:06:20;;;;;;;2.27;1.43;;;;;;;;;;5031158;28;20040;-72
2023/01/22 03:08:47;;;;;;;1.60;1.10;;;;;;;;;;5032573;28;20028;-71
2023/01/22 03:11:13;;;;;;;1.50;1.00;;;;;;;;;;5031182;28;20038;-72
2023/01/22 03:21:53;;;;;;;1.27;0.97;;;;;;;;;;5032152;28;20111;-72
2023/01/22 03:24:19;;;;;;;1.47;1.00;;;;;;;;;;5032099;28;20476;-72
2023/01/22 03:26:45;;;;;;;3.90;0.97;;;;;;;;;;5035223;28;20045;-72
2023/01/22 03:29:11;;;;;;;1.07;0.90;;;;;;;;;;5030347;28;20113;-72
2023/01/22 03:31:37;;;;;;;1.20;0.83;;;;;;;;;;5016404;28;20046;-72
2023/01/22 03:34:03;;;;;;;1.50;0.93;;;;;;;;;;5015300;28;20064;-72
2023/01/22 03:36:29;;;;;;;1.40;0.93;;;;;;;;;;5016113;28;20117;-72
2023/01/22 03:38:55;;;;;;;1.10;0.80;;;;;;;;;;5016254;28;20531;-72
2023/01/22 03:41:22;;;;;;;1.03;0.63;;;;;;;;;;5016413;28;20070;-71
2023/01/22 03:43:48;;;;;;;0.97;0.80;;;;;;;;;;5016359;28;20472;-72
2023/01/22 03:46:18;;;;;;;2.83;0.90;;;;;;;;;;5016184;28;20037;-72
2023/01/22 03:48:44;;;;;;;1.13;0.63;;;;;;;;;;5016006;28;20476;-71
2023/01/22 03:51:15;;;;;;;1.17;0.80;;;;;;;;;;5015963;28;20041;-72
2023/01/22 03:53:41;;;;;;;1.67;0.80;;;;;;;;;;5014826;28;20509;-72
2023/01/22 03:56:09;;;;;;;2.53;0.80;;;;;;;;;;5016231;28;20043;-72
2023/01/22 03:58:36;;;;;;;1.87;0.60;;;;;;;;;;5016039;28;20077;-71
2023/01/22 04:01:03;;;;;;;1.13;0.70;;;;;;;;;;5015767;28;20483;-71
2023/01/22 04:03:30;;;;;;;1.20;0.80;;;;;;;;;;5015574;28;20040;-71
2023/01/22 04:05:59;;;;;;;0.93;0.77;;;;;;;;;;5015961;28;20034;-72
2023/01/22 04:08:26;;;;;;;1.03;0.73;;;;;;;;;;5015924;28;20035;-72
2023/01/22 04:10:52;;;;;;;0.93;0.73;;;;;;;;;;5015897;28;20034;-72
2023/01/22 04:13:18;;;;;;;1.00;0.63;;;;;;;;;;5015546;28;20041;-72
2023/01/22 04:15:44;;;;;;;1.87;0.90;;;;;;;;;;5015725;28;20092;-71
2023/01/22 04:18:10;;;;;;;0.70;0.57;;;;;;;;;;5015710;28;20116;-72
2023/01/22 04:20:37;;;;;;;1.30;0.70;;;;;;;;;;5015290;28;20574;-72
2023/01/22 04:23:03;;;;;;;1.10;0.70;;;;;;;;;;5015446;28;20037;-72
2023/01/22 04:25:29;;;;;;;1.07;0.90;;;;;;;;;;5015111;28;20026;-72
2023/01/22 04:27:55;;;;;;;2.63;0.80;;;;;;;;;;5015264;28;20034;-72
2023/01/22 04:30:21;;;;;;;1.37;0.93;;;;;;;;;;5015416;28;20087;-72
2023/01/22 04:32:47;;;;;;;1.70;0.80;;;;;;;;;;5015393;28;20125;-71
2023/01/22 04:35:13;;;;;;;1.10;0.70;;;;;;;;;;5015149;28;20038;-72
2023/01/22 04:37:40;;;;;;;2.80;1.13;;;;;;;;;;5014157;28;20052;-72
2023/01/22 04:40:07;;;;;;;1.57;0.80;;;;;;;;;;5014077;28;20034;-72
2023/01/22 04:42:33;;;;;;;3.07;1.20;;;;;;;;;;5015063;28;20169;-72
2023/01/22 04:44:59;;;;;;;1.50;0.80;;;;;;;;;;5013777;28;20042;-71
2023/01/22 04:47:25;;;;;;;1.63;0.80;;;;;;;;;;5014864;28;20064;-71
2023/01/22 04:49:51;;;;;;;1.07;0.70;;;;;;;;;;5014978;28;20116;-71
2023/01/22 04:52:17;;;;;;;1.63;0.63;;;;;;;;;;5015085;28;20030;-72
2023/01/22 04:54:43;;;;;;;1.67;0.90;;;;;;;;;;5015095;28;20034;-72
2023/01/22 04:57:10;;;;;;;1.63;0.90;;;;;;;;;;5014565;28;20049;-72
2023/01/22 04:59:36;;;;;;;4.10;0.73;;;;;;;;;;5014902;28;20038;-71
2023/01/22 05:02:03;;;;;;;1.73;0.97;;;;;;;;;;5014863;28;20049;-71
2023/01/22 05:04:29;;;;;;;1.97;1.00;;;;;;;;;;5014642;28;20030;-72
2023/01/22 05:06:55;;;;;;;1.50;0.80;;;;;;;;;;5014923;28;20034;-72
2023/01/22 05:09:23;;;;;;;1.27;0.70;;;;;;;;;;5014680;28;20117;-72
2023/01/22 05:11:49;;;;;;;1.50;0.70;;;;;;;;;;5013431;28;20033;-71
2023/01/22 05:14:15;;;;;;;1.47;0.97;;;;;;;;;;5014576;28;20034;-71
2023/01/22 05:16:41;;;;;;;1.40;1.00;;;;;;;;;;5014510;28;20045;-72
2023/01/22 05:19:07;;;;;;;0.97;0.60;;;;;;;;;;5014333;28;20072;-72
2023/01/22 05:21:34;;;;;;;1.60;1.00;;;;;;;;;;5014600;28;20104;-71
2023/01/22 05:24:00;;;;;;;1.50;0.60;;;;;;;;;;5014548;28;20030;-72
2023/01/22 05:26:26;;;;;;;1.23;0.70;;;;;;;;;;5012911;28;20061;-72
2023/01/22 05:28:52;;;;;;;1.10;0.80;;;;;;;;;;5014411;28;20499;-72
2023/01/22 05:31:18;;;;;;;1.10;0.60;;;;;;;;;;5014062;28;20034;-71
2023/01/22 05:33:44;;;;;;;1.00;0.70;;;;;;;;;;5013722;28;20420;-72
2023/01/22 05:36:11;;;;;;;1.37;0.80;;;;;;;;;;5013986;28;20547;-72
2023/01/22 05:38:37;;;;;;;1.67;0.90;;;;;;;;;;5014193;28;20069;-72
2023/01/22 05:41:03;;;;;;;1.17;0.70;;;;;;;;;;5013832;28;20046;-72
2023/01/22 05:43:30;;;;;;;1.37;0.70;;;;;;;;;;5013836;28;20041;-71
2023/01/22 05:45:59;;;;;;;1.70;0.70;;;;;;;;;;5013802;28;20112;-72
2023/01/22 05:48:26;;;;;;;1.20;0.97;;;;;;;;;;5012339;28;20026;-72
2023/01/22 05:50:52;;;;;;;1.30;0.73;;;;;;;;;;5013768;28;20048;-72
2023/01/22 05:53:18;;;;;;;1.80;0.90;;;;;;;;;;5013562;28;20034;-72
2023/01/22 05:55:44;;;;;;;1.73;0.80;;;;;;;;;;5013956;28;20070;-71
2023/01/22 05:58:10;;;;;;;1.50;0.80;;;;;;;;;;5013634;28;20559;-72
2023/01/22 06:00:36;;;;;;;1.57;0.80;;;;;;;;;;5013562;28;20030;-72
2023/01/22 06:03:02;;;;;;;1.67;1.00;;;;;;;;;;5013632;28;20370;-72
2023/01/22 06:05:28;;;;;;;1.97;0.90;;;;;;;;;;5013369;28;20034;-71
2023/01/22 06:07:54;;;;;;;4.20;0.80;;;;;;;;;;5013575;28;20057;-72
2023/01/22 06:10:20;;;;;;;2.27;0.97;;;;;;;;;;5013556;28;20124;-72
2023/01/22 06:12:46;;;;;;;1.53;0.80;;;;;;;;;;5013551;28;20030;-71
2023/01/22 06:15:12;;;;;;;1.73;0.60;;;;;;;;;;5013530;28;20045;-71
2023/01/22 06:17:38;;;;;;;0.93;0.60;;;;;;;;;;5013530;28;20030;-72
2023/01/22 06:20:05;;;;;;;1.53;0.77;;;;;;;;;;5012944;28;20044;-72
2023/01/22 06:22:31;;;;;;;1.13;0.80;;;;;;;;;;5011902;28;20045;-72
2023/01/22 06:24:57;;;;;;;3.60;0.90;;;;;;;;;;5013261;28;20066;-72
2023/01/22 06:27:23;;;;;;;5.30;0.70;;;;;;;;;;5011853;28;20472;-72
2023/01/22 06:29:49;;;;;;;2.60;1.00;;;;;;;;;;5013020;28;20080;-72
2023/01/22 06:32:15;;;;;;;1.77;1.10;;;;;;;;;;5011910;28;20432;-72
2023/01/22 06:34:41;;;;;;;11.67;4.43;;;;;;;;;;5013340;28;20072;-72
2023/01/22 06:37:07;;;;;;;6.80;3.37;;;;;;;;;;5013029;28;20112;-72
2023/01/22 06:39:33;;;;;;;4.37;2.90;;;;;;;;;;5011932;28;20034;-72
2023/01/22 06:42:00;;;;;;;6.83;4.10;;;;;;;;;;5013199;28;20103;-72
2023/01/22 06:44:26;;;;;;;9.93;4.90;;;;;;;;;;5013193;28;20038;-72
2023/01/22 06:46:52;;;;;;;2.40;1.70;;;;;;;;;;5012832;28;20488;-72
2023/01/22 06:49:18;;;;;;;3.73;1.10;;;;;;;;;;5012813;28;20042;-72
2023/01/22 06:51:44;;;;;;;2.87;1.80;;;;;;;;;;5012812;28;20117;-72
2023/01/22 06:54:13;;;;;;;4.67;2.87;;;;;;;;;;5012876;28;20030;-72
2023/01/22 06:56:39;;;;;;;4.20;2.50;;;;;;;;;;5012620;28;20042;-72
2023/01/22 06:59:05;;;;;;;4.97;2.03;;;;;;;;;;5012788;28;20108;-72
2023/01/22 07:01:31;;;;;;;3.93;2.83;;;;;;;;;;5015684;28;20500;-72
2023/01/22 07:03:57;;;;;;;5.40;4.40;;;;;;;;;;5016849;28;20126;-72
2023/01/22 07:06:23;;;;;;;4.33;2.73;;;;;;;;;;5016559;28;20113;-72
2023/01/22 07:08:49;;;;;;;2.77;1.57;;;;;;;;;;5016891;28;20522;-72
2023/01/22 07:11:15;;;;;;;2.53;1.80;;;;;;;;;;5016615;28;20030;-72
2023/01/22 07:13:42;;;;;;;4.33;2.30;;;;;;;;;;5015717;28;20044;-72
2023/01/22 07:16:08;;;;;;;6.10;2.80;;;;;;;;;;5015570;28;20092;-71
2023/01/22 07:18:34;;;;;;;5.10;2.87;;;;;;;;;;5016516;28;20117;-71
2023/01/22 07:21:01;;;;;;;6.27;4.03;;;;;;;;;;5016253;28;20046;-72
2023/01/22 07:23:28;;;;;;;9.73;5.87;;;;;;;;;;5015295;28;20033;-72
2023/01/22 07:25:54;;;;;;;10.60;6.50;;;;;;;;;;5016680;28;20042;-72
2023/01/22 07:28:20;;;;;;;11.30;6.43;;;;;;;;;;5016373;28;20045;-72
2023/01/22 07:30:46;;;;;;;3.47;2.33;;;;;;;;;;5016563;28;20497;-72
2023/01/22 07:33:13;;;;;;;3.73;2.17;;;;;;;;;;5016520;28;20041;-72
2023/01/22 07:35:40;;;;;;;4.23;2.40;;;;;;;;;;5016296;28;20598;-72
2023/01/22 07:38:06;;;;;;;5.00;3.30;;;;;;;;;;5016435;28;20065;-72
2023/01/22 07:40:33;;;;;;;7.47;4.60;;;;;;;;;;5016415;28;20034;-72
2023/01/22 07:42:59;;;;;;;9.23;5.30;;;;;;;;;;5014932;28;20049;-72
2023/01/22 07:45:25;;;;;;;10.80;5.80;;;;;;;;;;5015920;28;20042;-72
2023/01/22 07:47:55;;;;;;;6.07;3.20;;;;;;;;;;5014713;28;20034;-72
2023/01/22 07:50:22;;;;;;;4.50;2.77;;;;;;;;;;5015669;28;20053;-72
2023/01/22 07:52:48;;;;;;;3.33;1.97;;;;;;;;;;5015859;28;20081;-72
2023/01/22 07:55:14;;;;;;;3.80;2.20;;;;;;;;;;5016012;28;20030;-72
2023/01/22 07:57:41;;;;;;;2.90;1.77;;;;;;;;;;5015561;28;20121;-72
2023/01/22 08:00:11;;;;;;;3.47;1.77;;;;;;;;;;5015634;28;20085;-71
2023/01/22 08:02:38;;;;;;;1.90;1.17;;;;;;;;;;5015040;28;20042;-72
2023/01/22 08:05:05;;;;;;;2.20;1.03;;;;;;;;;;5015932;28;20117;-71
2023/01/22 08:07:31;;;;;;;1.63;1.03;;;;;;;;;;5015580;28;20503;-72
2023/01/22 08:09:58;;;;;;;7.17;1.43;;;;;;;;;;5014557;28;20128;-72
2023/01/22 08:12:24;;;;;;;5.30;2.93;;;;;;;;;;5015695;28;20535;-72
2023/01/22 08:14:50;;;;;;;3.80;2.03;;;;;;;;;;5014393;28;20037;-72
2023/01/22 08:17:16;;;;;;;9.33;4.23;;;;;;;;;;5015445;28;20097;-72
2023/01/22 08:19:42;;;;;;;5.97;3.27;;;;;;;;;;5015522;28;20029;-72
2023/01/22 08:22:08;;;;;;;4.83;2.43;;;;;;;;;;5013910;28;20042;-71
2023/01/22 08:24:35;;;;;;;4.90;2.60;;;;;;;;;;5012790;28;20038;-72
2023/01/22 08:27:01;;;;;;;8.07;2.53;;;;;;;;;;5012506;28;20038;-72
2023/01/22 08:29:27;;;;;;;3.63;1.80;;;;;;;;;;5014196;28;20042;-71
2023/01/22 08:31:53;;;;;;;3.40;2.10;;;;;;;;;;5013320;28;20415;-72
2023/01/22 08:34:20;;;;;;;3.63;1.90;;;;;;;;;;5010912;28;20046;-71
2023/01/22 08:36:46;;;;;;;4.97;1.87;;;;;;;;;;5012300;28;20508;-72
2023/01/22 08:39:12;;;;;;;3.60;2.00;;;;;;;;;;5013240;28;20030;-72
2023/01/22 08:41:39;;;;;;;4.17;2.30;;;;;;;;;;5014599;28;20048;-72
2023/01/22 08:44:05;;;;;;;4.03;2.80;;;;;;;;;;5013820;28;20030;-72
2023/01/22 08:46:31;;;;;;;3.67;2.30;;;;;;;;;;5014898;28;20137;-72
2023/01/22 08:48:57;;;;;;;3.57;2.10;;;;;;;;;;5014751;28;20122;-71
2023/01/22 08:51:25;;;;;;;3.70;2.23;;;;;;;;;;5014527;28;20037;-72
2023/01/22 08:53:51;;;;;;;3.60;1.90;;;;;;;;;;5014666;28;20038;-71
2023/01/22 08:56:17;;;;;;;7.03;2.27;;;;;;;;;;5015854;28;20042;-72
2023/01/22 08:58:43;;;;;;;4.33;2.33;;;;;;;;;;5033845;28;20073;-71
2023/01/22 09:01:16;;;;;;;3.50;2.17;;;;;;;;;;5034000;28;20046;-72
2023/01/22 09:03:42;;;;;;;3.30;2.00;;;;;;;;;;5033011;28;20040;-72
2023/01/22 09:06:09;;;;;;;7.60;4.50;;;;;;;;;;5032655;28;20415;-71
2023/01/22 09:08:35;;;;;;;12.20;6.27;;;;;;;;;;5049030;28;20482;-72
2023/01/22 09:11:03;;;;;;;13.57;8.10;;;;;;;;;;5034864;28;20040;-71
2023/01/22 09:13:29;;;;;;;9.87;6.23;;;;;;;;;;5036636;28;20044;-71
2023/01/22 09:15:55;;;;;;;10.13;5.97;;;;;;;;;;5053762;28;20537;-72
2023/01/22 09:18:21;;;;;;;8.93;5.73;;;;;;;;;;5035028;28;20048;-72
2023/01/22 09:20:47;;;;;;;7.60;4.80;;;;;;;;;;5031205;28;20087;-72
2023/01/22 09:23:14;;;;;;;6.97;3.40;;;;;;;;;;5031099;28;20095;-69
2023/01/22 09:25:40;;;;;;;6.17;3.50;;;;;;;;;;5031309;28;20049;-70
2023/01/22 09:28:08;;;;;;;7.40;4.13;;;;;;;;;;5033615;28;20030;-68
2023/01/22 09:30:34;;;;;;;6.23;3.77;;;;;;;;;;5033824;28;20059;-69
2023/01/22 09:33:00;;;;;;;5.77;3.40;;;;;;;;;;5033859;28;20029;-71
2023/01/22 09:35:27;;;;;;;7.30;4.10;;;;;;;;;;5033567;28;20045;-70
2023/01/22 09:37:53;;;;;;;6.17;3.30;;;;;;;;;;5032373;28;20398;-70
2023/01/22 09:40:25;;;;;;;6.07;3.10;;;;;;;;;;5033449;28;20128;-72
2023/01/22 09:42:53;;;;;;;4.70;2.80;;;;;;;;;;5033213;28;20045;-70
2023/01/22 09:45:21;;;;;;;4.57;3.17;;;;;;;;;;5030818;28;20040;-70
2023/01/22 09:47:52;;;;;;;4.93;2.93;;;;;;;;;;5030443;28;20045;-71
2023/01/22 09:50:20;;;;;;;4.27;2.27;;;;;;;;;;5031263;28;20076;-70
2023/01/22 09:52:49;;;;;;;4.07;2.30;;;;;;;;;;5033158;28;20131;-70
2023/01/22 09:55:18;;;;;;;4.50;2.10;;;;;;;;;;5032983;28;20029;-70
2023/01/22 09:57:45;;;;;;;3.67;1.83;;;;;;;;;;5031793;28;20053;-70
2023/01/22 10:00:16;;;;;;;4.23;2.50;;;;;;;;;;5030423;28;20483;-70
2023/01/22 10:02:52;;;;;;;3.70;2.20;;;;;;;;;;5030474;28;20053;-69
2023/01/22 10:05:30;;;;;;;3.37;2.30;;;;;;;;;;5031974;28;20042;-71
2023/01/22 10:07:59;;;;;;;2.83;1.77;;;;;;;;;;5032888;28;20037;-71
2023/01/22 10:10:26;;;;;;;3.27;1.53;;;;;;;;;;5032350;28;20498;-71
2023/01/22 10:13:12;;;;;;;2.17;1.40;;;;;;;;;;5031436;28;20052;-71
2023/01/22 10:15:38;;;;;;;3.60;1.90;;;;;;;;;;5032050;28;20029;-71
2023/01/22 10:18:12;;;;;;;3.97;1.63;;;;;;;;;;5033170;28;20445;-71
2023/01/22 10:20:38;;;;;;;4.53;1.50;;;;;;;;;;5032450;28;20033;-71
2023/01/22 10:23:13;;;;;;;5.70;1.50;;;;;;;;;;5031323;28;20479;-71
2023/01/22 10:25:45;;;;;;;3.57;1.37;;;;;;;;;;5032823;28;20115;-71
2023/01/22 10:28:12;;;;;;;2.43;1.40;;;;;;;;;;5032701;28;20044;-71
2023/01/22 10:30:48;;;;;;;3.00;1.60;;;;;;;;;;5033075;28;20091;-71
2023/01/22 10:33:20;;;;;;;2.10;1.30;;;;;;;;;;5032659;28;20107;-71
2023/01/22 10:35:48;;;;;;;3.70;1.55;;;;;;;;;;5031601;28;20140;-69
2023/01/22 10:38:24;;;;;;;2.90;1.40;;;;;;;;;;5032647;28;20065;-71
2023/01/22 10:41:01;;;;;;;2.43;1.50;;;;;;;;;;5032791;28;20076;-70
2023/01/22 10:43:34;;;;;;;4.00;2.33;;;;;;;;;;5031232;28;20041;-71
2023/01/22 10:46:03;;;;;;;12.27;1.50;;;;;;;;;;5032666;28;20029;-71
2023/01/22 10:48:30;;;;;;;5.20;1.70;;;;;;;;;;5032599;28;20034;-70
2023/01/22 10:51:11;;;;;;;2.27;1.50;;;;;;;;;;5032385;28;20483;-71
2023/01/22 10:53:38;;;;;;;4.40;2.63;;;;;;;;;;5032746;28;20049;-71
2023/01/22 10:56:06;;;;;;;3.87;1.70;;;;;;;;;;5032719;28;20044;-70
2023/01/22 10:58:34;;;;;;;2.77;1.30;;;;;;;;;;5031994;28;20049;-70
2023/01/22 11:01:05;;;;;;;3.03;1.60;;;;;;;;;;5032299;28;20165;-71
2023/01/22 11:03:33;;;;;;;3.40;1.60;;;;;;;;;;5032415;28;20025;-71
2023/01/22 11:06:02;;;;;;;2.90;1.80;;;;;;;;;;5031946;28;20043;-71
2023/01/22 11:08:30;;;;;;;3.47;1.93;;;;;;;;;;5032140;28;20387;-71
2023/01/22 11:11:08;;;;;;;5.90;2.23;;;;;;;;;;5032255;28;20040;-71
2023/01/22 11:13:52;;;;;;;13.83;3.33;;;;;;;;;;5032090;28;20034;-73
2023/01/22 11:16:20;;;;;;;2.20;1.30;;;;;;;;;;5030239;28;20124;-71
2023/01/22 11:18:59;;;;;;;2.23;1.17;;;;;;;;;;5029701;28;20079;-71
2023/01/22 11:21:26;;;;;;;2.20;1.23;;;;;;;;;;5029493;28;20057;-71
2023/01/22 11:23:55;;;;;;;5.10;2.00;;;;;;;;;;5032119;28;20041;-71
2023/01/22 11:26:37;;;;;;;3.30;1.80;;;;;;;;;;5032225;28;20038;-71
2023/01/22 11:29:15;;;;;;;4.13;1.77;;;;;;;;;;5032454;28;20088;-70
2023/01/22 11:31:57;;;;;;;3.37;1.70;;;;;;;;;;5032185;28;20040;-70
2023/01/22 11:34:32;;;;;;;2.63;1.30;;;;;;;;;;5031975;28;20167;-71
2023/01/22 11:37:19;;;;;;;1.93;1.30;;;;;;;;;;5032333;28;20037;-70
2023/01/22 11:40:03;;;;;;;1.70;1.30;;;;;;;;;;5032045;28;20034;-70
2023/01/22 11:42:48;;;;;;;2.67;1.43;;;;;;;;;;5032158;28;20139;-71
2023/01/22 11:45:30;;;;;;;2.57;1.83;;;;;;;;;;5032085;28;20042;-71
2023/01/22 11:48:05;;;;;;;3.03;1.40;;;;;;;;;;5033838;28;20033;-70
2023/01/22 11:50:56;;;;;;;3.03;1.70;;;;;;;;;;5035680;28;20038;-71
2023/01/22 11:53:35;;;;;;;2.73;1.50;;;;;;;;;;5035371;28;20038;-70
2023/01/22 11:56:24;;;;;;;2.83;1.27;;;;;;;;;;5025850;28;20090;-71
2023/01/22 11:58:59;;;;;;;2.80;1.60;;;;;;;;;;5051695;28;20441;-71
2023/01/22 12:01:40;;;;;;;2.43;1.63;;;;;;;;;;5042823;28;20040;-70
2023/01/22 12:04:22;;;;;;;2.67;1.87;;;;;;;;;;5053056;28;20559;-71
2023/01/22 12:06:48;;;;;;;3.90;1.37;;;;;;;;;;5051169;28;20033;-71
2023/01/22 12:09:18;;;;;;;2.57;1.60;;;;;;;;;;5051950;28;20408;-70
2023/01/22 12:11:59;;;;;;;2.80;1.63;;;;;;;;;;5052251;28;20029;-70
2023/01/22 12:14:31;;;;;;;3.03;1.60;;;;;;;;;;5052462;28;20021;-70
2023/01/22 12:17:16;;;;;;;3.90;1.92;;;;;;;;;;5050315;28;20037;-70
2023/01/22 12:19:49;;;;;;;3.67;2.40;;;;;;;;;;5033619;28;20038;-71
2023/01/22 12:22:48;;;;;;;5.00;2.20;;;;;;;;;;5032959;28;20049;-71
2023/01/22 12:25:37;;;;;;;3.13;1.90;;;;;;;;;;5011624;28;20042;-71
2023/01/22 12:28:03;;;;;;;3.53;1.80;;;;;;;;;;5025286;28;20040;-71
2023/01/22 12:30:44;;;;;;;2.57;1.50;;;;;;;;;;5034837;28;20038;-71
2023/01/22 12:33:16;;;;;;;3.90;1.60;;;;;;;;;;5032883;28;20075;-70
2023/01/22 12:35:42;;;;;;;2.30;1.57;;;;;;;;;;5034240;28;20034;-71
2023/01/22 12:38:27;;;;;;;1.97;1.37;;;;;;;;;;5034637;28;20040;-72
2023/01/22 12:41:02;;;;;;;2.97;1.70;;;;;;;;;;5034842;28;20151;-71
2023/01/22 12:43:36;;;;;;;2.27;1.60;;;;;;;;;;5034975;28;20041;-71
2023/01/22 12:46:05;;;;;;;3.00;1.83;;;;;;;;;;5035561;28;20096;-70
2023/01/22 12:48:37;;;;;;;2.97;1.60;;;;;;;;;;5034670;28;20112;-70
2023/01/22 12:51:03;;;;;;;3.38;2.25;;;;;;;;;;5034158;28;20037;-70
2023/01/22 12:53:33;;;;;;;4.03;2.17;;;;;;;;;;5034363;28;20483;-69
2023/01/22 12:56:03;;;;;;;2.67;1.50;;;;;;;;;;5033035;28;20032;-70
2023/01/22 12:58:30;;;;;;;3.60;1.30;;;;;;;;;;5033142;28;20046;-69
2023/01/22 13:01:02;;;;;;;1.83;1.30;;;;;;;;;;5034533;28;20365;-69
2023/01/22 13:03:29;;;;;;;2.70;1.38;;;;;;;;;;5032996;28;20044;-72
2023/01/22 13:05:56;;;;;;;2.33;1.40;;;;;;;;;;5034111;28;20069;-70
2023/01/22 13:08:42;;;;;;;2.27;1.30;;;;;;;;;;5034762;28;20037;-71
2023/01/22 13:11:12;;;;;;;2.60;1.70;;;;;;;;;;5034252;28;20033;-70
2023/01/22 13:13:53;;;;;;;2.23;1.37;;;;;;;;;;5033991;28;20109;-69
2023/01/22 13:16:27;;;;;;;1.97;1.30;;;;;;;;;;5034211;28;20041;-70
2023/01/22 13:18:55;;;;;;;2.53;1.40;;;;;;;;;;5033007;28;20484;-70
2023/01/22 13:21:27;;;;;;;6.00;1.20;;;;;;;;;;5033776;28;20041;-69
2023/01/22 13:23:57;;;;;;;2.42;1.40;;;;;;;;;;5033970;28;20477;-69
2023/01/22 13:26:25;;;;;;;2.20;1.20;;;;;;;;;;5032402;28;20056;-69
2023/01/22 13:28:53;;;;;;;3.10;1.20;;;;;;;;;;5033474;28;20044;-71
2023/01/22 13:31:19;;;;;;;2.27;1.20;;;;;;;;;;5034102;28;20100;-69
2023/01/22 13:33:55;;;;;;;2.53;1.20;;;;;;;;;;5033933;28;20376;-70
2023/01/22 13:36:21;;;;;;;1.83;1.17;;;;;;;;;;5032268;28;20078;-70
2023/01/22 13:38:51;;;;;;;2.40;1.20;;;;;;;;;;5033620;28;20044;-70
2023/01/22 13:41:26;;;;;;;2.87;1.50;;;;;;;;;;5033701;28;20034;-70
2023/01/22 13:43:52;;;;;;;2.03;1.23;;;;;;;;;;5033257;28;20041;-70
2023/01/22 13:46:18;;;;;;;1.13;0.80;;;;;;;;;;5032250;28;20038;-71
2023/01/22 13:48:44;;;;;;;2.30;1.20;;;;;;;;;;5033468;28;20060;-70
2023/01/22 13:51:17;;;;;;;1.33;0.90;;;;;;;;;;5033268;28;20034;-70
2023/01/22 13:53:45;;;;;;;1.60;0.93;;;;;;;;;;5033416;28;20382;-70
2023/01/22 13:56:21;;;;;;;1.90;1.20;;;;;;;;;;5032021;28;20026;-71
2023/01/22 13:58:48;;;;;;;1.77;0.90;;;;;;;;;;5032993;28;20049;-70
2023/01/22 14:01:26;;;;;;;47.53;3.53;;;;;;;;;;5033384;28;20081;-70
2023/01/22 14:04:02;;;;;;;1.70;0.90;;;;;;;;;;5033094;28;20116;-70
2023/01/22 14:06:29;;;;;;;1.60;0.90;;;;;;;;;;5032701;28;20034;-70
2023/01/22 14:08:56;;;;;;;1.67;0.97;;;;;;;;;;5032781;28;20034;-71
2023/01/22 14:11:23;;;;;;;1.70;0.70;;;;;;;;;;5032761;28;20034;-71
2023/01/22 14:13:51;;;;;;;3.13;1.10;;;;;;;;;;5032803;28;20033;-71
2023/01/22 14:16:17;;;;;;;2.70;0.80;;;;;;;;;;5032674;28;20096;-71
2023/01/22 14:18:45;;;;;;;1.40;1.03;;;;;;;;;;5031222;28;20121;-70
2023/01/22 14:21:12;;;;;;;1.93;1.10;;;;;;;;;;5032229;28;20518;-71
2023/01/22 14:23:38;;;;;;;1.90;1.00;;;;;;;;;;5030834;28;20064;-70
2023/01/22 14:26:05;;;;;;;1.87;1.10;;;;;;;;;;5030081;28;20108;-70
2023/01/22 14:28:32;;;;;;;1.60;0.90;;;;;;;;;;5029997;28;20096;-70
2023/01/22 14:30:58;;;;;;;1.63;1.00;;;;;;;;;;5032673;28;20475;-70
2023/01/22 14:33:26;;;;;;;2.67;1.37;;;;;;;;;;5032692;28;20032;-70
2023/01/22 14:35:52;;;;;;;2.30;1.33;;;;;;;;;;5032727;28;20029;-69
2023/01/22 14:38:19;;;;;;;2.80;1.47;;;;;;;;;;5032848;28;20547;-70
2023/01/22 14:40:45;;;;;;;3.40;1.80;;;;;;;;;;5032840;28;20079;-70
2023/01/22 14:43:11;;;;;;;1.90;1.30;;;;;;;;;;5032631;28;20061;-70
2023/01/22 14:45:41;;;;;;;2.20;1.20;;;;;;;;;;5032503;28;20056;-70
2023/01/22 14:48:07;;;;;;;1.57;0.90;;;;;;;;;;5033074;28;20049;-70
2023/01/22 14:50:33;;;;;;;1.60;1.13;;;;;;;;;;5033026;28;20487;-70
2023/01/22 14:52:59;;;;;;;1.60;1.07;;;;;;;;;;5032956;28;20038;-70
2023/01/22 14:55:26;;;;;;;1.27;0.83;;;;;;;;;;5032794;28;20030;-70
2023/01/22 14:57:53;;;;;;;3.47;1.53;;;;;;;;;;5032569;28;20053;-70
2023/01/22 15:00:19;;;;;;;2.83;1.57;;;;;;;;;;5032809;28;20132;-70